sensor_id;sensor_type;location;lat;lon;timestamp;temperature;humidity
19930;DHT22;10127;47.780;9.606;2023-02-01T00:01:50;5.20;99.90
19930;DHT22;10127;47.780;9.606;2023-02-01T00:04:16;5.20;99.90
19930;DHT22;10127;47.780;9.606;2023-02-01T00:06:41;5.20;99.90
19930;DHT22;10127;47.780;9.606;2023-02-01T00:09:07;5.30;99.90
19930;DHT22;10127;47.780;9.606;2023-02-01T00:11:33;5.20;99.90
19930;DHT22;10127;47.780;9.606;2023-02-01T00:13:58;5.20;99.90
19930;DHT22;10127;47.780;9.606;2023-02-01T00:16:29;5.30;99.90
19930;DHT22;10127;47.780;9.606;2023-02-01T00:18:59;5.20;99.90
19930;DHT22;10127;47.780;9.606;2023-02-01T00:21:25;5.30;99.90
19930;DHT22;10127;47.780;9.606;2023-02-01T00:23:51;5.30;99.90
19930;DHT22;10127;47.780;9.606;2023-02-01T00:26:31;5.30;99.90
19930;DHT22;10127;47.780;9.606;2023-02-01T00:28:57;5.30;99.90
19930;DHT22;10127;47.780;9.606;2023-02-01T00:31:22;5.30;99.90
19930;DHT22;10127;47.780;9.606;2023-02-01T00:33:48;5.30;99.90
19930;DHT22;10127;47.780;9.606;2023-02-01T00:36:15;5.30;99.90
19930;DHT22;10127;47.780;9.606;2023-02-01T00:38:40;5.30;99.90
19930;DHT22;10127;47.780;9.606;2023-02-01T00:41:11;5.30;99.90
19930;DHT22;10127;47.780;9.606;2023-02-01T00:43:36;5.20;99.90
19930;DHT22;10127;47.780;9.606;2023-02-01T00:46:02;5.20;99.90
19930;DHT22;10127;47.780;9.606;2023-02-01T00:48:28;5.20;99.90
19930;DHT22;10127;47.780;9.606;2023-02-01T00:50:53;5.20;99.90
19930;DHT22;10127;47.780;9.606;2023-02-01T00:53:19;5.20;99.90
19930;DHT22;10127;47.780;9.606;2023-02-01T00:55:48;5.20;99.90
19930;DHT22;10127;47.780;9.606;2023-02-01T00:58:14;5.30;99.90
19930;DHT22;10127;47.780;9.606;2023-02-01T01:00:40;5.30;99.90
19930;DHT22;10127;47.780;9.606;2023-02-01T01:03:05;5.30;99.90
19930;DHT22;10127;47.780;9.606;2023-02-01T01:05:48;5.20;99.90
19930;DHT22;10127;47.780;9.606;2023-02-01T01:08:15;5.20;99.90
19930;DHT22;10127;47.780;9.606;2023-02-01T01:10:40;5.20;99.90
19930;DHT22;10127;47.780;9.606;2023-02-01T01:13:07;5.20;99.90
19930;DHT22;10127;47.780;9.606;2023-02-01T01:15:37;5.20;99.90
19930;DHT22;10127;47.780;9.606;2023-02-01T01:18:03;5.20;99.90
19930;DHT22;10127;47.780;9.606;2023-02-01T01:20:29;5.20;99.90
19930;DHT22;10127;47.780;9.606;2023-02-01T01:22:55;5.20;99.90
19930;DHT22;10127;47.780;9.606;2023-02-01T01:25:20;5.20;99.90
19930;DHT22;10127;47.780;9.606;2023-02-01T01:27:46;5.10;99.90
19930;DHT22;10127;47.780;9.606;2023-02-01T01:30:12;5.10;99.90
19930;DHT22;10127;47.780;9.606;2023-02-01T01:32:37;5.10;99.90
19930;DHT22;10127;47.780;9.606;2023-02-01T01:35:03;5.10;99.90
19930;DHT22;10127;47.780;9.606;2023-02-01T01:37:29;5.20;99.90
19930;DHT22;10127;47.780;9.606;2023-02-01T01:39:54;5.20;99.90
19930;DHT22;10127;47.780;9.606;2023-02-01T01:42:21;5.20;99.90
19930;DHT22;10127;47.780;9.606;2023-02-01T01:45:00;5.10;99.90
19930;DHT22;10127;47.780;9.606;2023-02-01T01:47:31;5.10;99.90
19930;DHT22;10127;47.780;9.606;2023-02-01T01:49:59;5.10;99.90
19930;DHT22;10127;47.780;9.606;2023-02-01T01:52:25;5.10;99.90
19930;DHT22;10127;47.780;9.606;2023-02-01T01:54:52;5.10;99.90
19930;DHT22;10127;47.780;9.606;2023-02-01T01:57:24;5.10;99.90
19930;DHT22;10127;47.780;9.606;2023-02-01T01:59:57;5.10;99.90
19930;DHT22;10127;47.780;9.606;2023-02-01T02:02:25;5.00;99.90
19930;DHT22;10127;47.780;9.606;2023-02-01T02:04:50;4.90;99.90
19930;DHT22;10127;47.780;9.606;2023-02-01T02:07:21;4.90;99.90
19930;DHT22;10127;47.780;9.606;2023-02-01T02:09:48;4.80;99.90
19930;DHT22;10127;47.780;9.606;2023-02-01T02:12:13;4.80;99.90
19930;DHT22;10127;47.780;9.606;2023-02-01T02:14:39;4.80;99.90
19930;DHT22;10127;47.780;9.606;2023-02-01T02:25:52;4.70;99.90
19930;DHT22;10127;47.780;9.606;2023-02-01T02:28:29;4.60;99.90
19930;DHT22;10127;47.780;9.606;2023-02-01T02:39:06;4.80;99.90
19930;DHT22;10127;47.780;9.606;2023-02-01T03:11:08;4.90;99.90
19930;DHT22;10127;47.780;9.606;2023-02-01T03:13:54;4.80;99.90
19930;DHT22;10127;47.780;9.606;2023-02-01T03:19:31;4.90;99.90
19930;DHT22;10127;47.780;9.606;2023-02-01T03:22:08;4.90;99.90
19930;DHT22;10127;47.780;9.606;2023-02-01T03:24:42;4.90;99.90
19930;DHT22;10127;47.780;9.606;2023-02-01T03:32:14;4.80;99.90
19930;DHT22;10127;47.780;9.606;2023-02-01T03:34:40;4.80;99.90
19930;DHT22;10127;47.780;9.606;2023-02-01T03:37:11;4.80;99.90
19930;DHT22;10127;47.780;9.606;2023-02-01T03:40:00;4.80;99.90
19930;DHT22;10127;47.780;9.606;2023-02-01T03:42:48;4.70;99.90
19930;DHT22;10127;47.780;9.606;2023-02-01T03:45:33;4.80;99.90
19930;DHT22;10127;47.780;9.606;2023-02-01T03:48:01;4.70;99.90
19930;DHT22;10127;47.780;9.606;2023-02-01T03:50:30;4.80;99.90
19930;DHT22;10127;47.780;9.606;2023-02-01T03:53:01;4.70;99.90
19930;DHT22;10127;47.780;9.606;2023-02-01T03:55:28;4.80;99.90
19930;DHT22;10127;47.780;9.606;2023-02-01T03:58:13;4.80;99.90
19930;DHT22;10127;47.780;9.606;2023-02-01T04:00:40;4.80;99.90
19930;DHT22;10127;47.780;9.606;2023-02-01T04:03:06;4.90;99.90
19930;DHT22;10127;47.780;9.606;2023-02-01T04:05:33;4.90;99.90
19930;DHT22;10127;47.780;9.606;2023-02-01T04:07:59;4.90;99.90
19930;DHT22;10127;47.780;9.606;2023-02-01T04:10:25;4.90;99.90
19930;DHT22;10127;47.780;9.606;2023-02-01T04:12:51;4.90;99.90
19930;DHT22;10127;47.780;9.606;2023-02-01T04:15:16;4.90;99.90
19930;DHT22;10127;47.780;9.606;2023-02-01T04:17:42;5.00;99.90
19930;DHT22;10127;47.780;9.606;2023-02-01T04:20:08;4.90;99.90
19930;DHT22;10127;47.780;9.606;2023-02-01T04:22:34;4.80;99.90
19930;DHT22;10127;47.780;9.606;2023-02-01T04:25:00;4.80;99.90
19930;DHT22;10127;47.780;9.606;2023-02-01T04:27:25;4.90;99.90
19930;DHT22;10127;47.780;9.606;2023-02-01T04:29:51;4.90;99.90
19930;DHT22;10127;47.780;9.606;2023-02-01T04:32:17;4.90;99.90
19930;DHT22;10127;47.780;9.606;2023-02-01T04:34:43;4.90;99.90
19930;DHT22;10127;47.780;9.606;2023-02-01T04:37:09;4.90;99.90
19930;DHT22;10127;47.780;9.606;2023-02-01T04:39:34;5.00;99.90
19930;DHT22;10127;47.780;9.606;2023-02-01T04:42:00;5.00;99.90
19930;DHT22;10127;47.780;9.606;2023-02-01T04:44:26;5.00;99.90
19930;DHT22;10127;47.780;9.606;2023-02-01T04:46:51;4.90;99.90
19930;DHT22;10127;47.780;9.606;2023-02-01T04:49:17;4.90;99.90
19930;DHT22;10127;47.780;9.606;2023-02-01T04:51:43;4.90;99.90
19930;DHT22;10127;47.780;9.606;2023-02-01T04:54:09;4.90;99.90
19930;DHT22;10127;47.780;9.606;2023-02-01T04:56:37;4.80;99.90
19930;DHT22;10127;47.780;9.606;2023-02-01T04:59:03;4.70;99.90
19930;DHT22;10127;47.780;9.606;2023-02-01T05:01:29;4.80;99.90
19930;DHT22;10127;47.780;9.606;2023-02-01T05:03:54;4.70;99.90
19930;DHT22;10127;47.780;9.606;2023-02-01T05:06:21;4.80;99.90
19930;DHT22;10127;47.780;9.606;2023-02-01T05:08:47;4.80;99.90
19930;DHT22;10127;47.780;9.606;2023-02-01T05:11:12;4.90;99.90
19930;DHT22;10127;47.780;9.606;2023-02-01T05:13:57;4.80;99.90
19930;DHT22;10127;47.780;9.606;2023-02-01T05:16:22;4.70;99.90
19930;DHT22;10127;47.780;9.606;2023-02-01T05:18:48;4.80;99.90
19930;DHT22;10127;47.780;9.606;2023-02-01T05:21:13;4.80;99.90
19930;DHT22;10127;47.780;9.606;2023-02-01T05:23:39;4.80;99.90
19930;DHT22;10127;47.780;9.606;2023-02-01T05:26:24;4.70;99.90
19930;DHT22;10127;47.780;9.606;2023-02-01T05:28:50;4.70;99.90
19930;DHT22;10127;47.780;9.606;2023-02-01T05:31:15;4.70;99.90
19930;DHT22;10127;47.780;9.606;2023-02-01T05:33:41;4.70;99.90
19930;DHT22;10127;47.780;9.606;2023-02-01T05:36:07;4.80;99.90
19930;DHT22;10127;47.780;9.606;2023-02-01T05:38:32;4.80;99.90
19930;DHT22;10127;47.780;9.606;2023-02-01T05:40:58;4.90;99.90
19930;DHT22;10127;47.780;9.606;2023-02-01T05:43:24;4.90;99.90
19930;DHT22;10127;47.780;9.606;2023-02-01T05:45:51;4.90;99.90
19930;DHT22;10127;47.780;9.606;2023-02-01T05:48:17;4.90;99.90
19930;DHT22;10127;47.780;9.606;2023-02-01T05:50:43;4.90;99.90
19930;DHT22;10127;47.780;9.606;2023-02-01T05:53:09;4.90;99.90
19930;DHT22;10127;47.780;9.606;2023-02-01T05:55:34;5.10;99.90
19930;DHT22;10127;47.780;9.606;2023-02-01T05:58:01;5.20;99.90
19930;DHT22;10127;47.780;9.606;2023-02-01T06:00:26;5.10;99.90
19930;DHT22;10127;47.780;9.606;2023-02-01T06:02:52;5.10;99.90
19930;DHT22;10127;47.780;9.606;2023-02-01T06:05:17;5.10;99.90
19930;DHT22;10127;47.780;9.606;2023-02-01T06:07:43;5.10;99.90
19930;DHT22;10127;47.780;9.606;2023-02-01T06:10:09;5.10;99.90
19930;DHT22;10127;47.780;9.606;2023-02-01T06:12:35;5.10;99.90
19930;DHT22;10127;47.780;9.606;2023-02-01T06:15:00;5.00;99.90
19930;DHT22;10127;47.780;9.606;2023-02-01T06:17:26;5.10;99.90
19930;DHT22;10127;47.780;9.606;2023-02-01T06:19:52;5.10;99.90
19930;DHT22;10127;47.780;9.606;2023-02-01T06:22:17;5.00;99.90
19930;DHT22;10127;47.780;9.606;2023-02-01T06:24:43;5.10;99.90
19930;DHT22;10127;47.780;9.606;2023-02-01T06:27:09;5.10;99.90
19930;DHT22;10127;47.780;9.606;2023-02-01T06:29:35;5.20;99.90
19930;DHT22;10127;47.780;9.606;2023-02-01T06:32:00;5.20;99.90
19930;DHT22;10127;47.780;9.606;2023-02-01T06:34:26;5.20;99.90
19930;DHT22;10127;47.780;9.606;2023-02-01T06:36:52;5.10;99.90
19930;DHT22;10127;47.780;9.606;2023-02-01T06:39:18;5.10;99.90
19930;DHT22;10127;47.780;9.606;2023-02-01T06:41:47;5.10;99.90
19930;DHT22;10127;47.780;9.606;2023-02-01T06:44:13;5.20;99.90
19930;DHT22;10127;47.780;9.606;2023-02-01T06:46:39;5.20;99.90
19930;DHT22;10127;47.780;9.606;2023-02-01T06:49:05;5.20;99.90
19930;DHT22;10127;47.780;9.606;2023-02-01T06:51:30;5.20;99.90
19930;DHT22;10127;47.780;9.606;2023-02-01T06:53:56;5.20;99.90
19930;DHT22;10127;47.780;9.606;2023-02-01T06:56:22;5.30;99.90
19930;DHT22;10127;47.780;9.606;2023-02-01T06:58:48;5.30;99.90
19930;DHT22;10127;47.780;9.606;2023-02-01T07:01:14;5.40;99.90
19930;DHT22;10127;47.780;9.606;2023-02-01T07:03:40;5.30;99.90
19930;DHT22;10127;47.780;9.606;2023-02-01T07:06:07;5.30;99.90
19930;DHT22;10127;47.780;9.606;2023-02-01T07:08:35;5.30;99.90
19930;DHT22;10127;47.780;9.606;2023-02-01T07:11:10;5.30;99.90
19930;DHT22;10127;47.780;9.606;2023-02-01T07:13:37;5.30;99.90
19930;DHT22;10127;47.780;9.606;2023-02-01T07:16:05;5.20;99.90
19930;DHT22;10127;47.780;9.606;2023-02-01T07:18:32;5.20;99.90
19930;DHT22;10127;47.780;9.606;2023-02-01T07:20:58;5.20;99.90
19930;DHT22;10127;47.780;9.606;2023-02-01T07:23:25;5.20;99.90
19930;DHT22;10127;47.780;9.606;2023-02-01T07:25:59;5.10;99.90
19930;DHT22;10127;47.780;9.606;2023-02-01T07:28:25;5.20;99.90
19930;DHT22;10127;47.780;9.606;2023-02-01T07:30:51;5.10;99.90
19930;DHT22;10127;47.780;9.606;2023-02-01T07:33:22;5.10;99.90
19930;DHT22;10127;47.780;9.606;2023-02-01T07:35:49;5.20;99.90
19930;DHT22;10127;47.780;9.606;2023-02-01T07:38:14;5.30;99.90
19930;DHT22;10127;47.780;9.606;2023-02-01T07:40:40;5.30;99.90
19930;DHT22;10127;47.780;9.606;2023-02-01T07:43:06;5.20;99.90
19930;DHT22;10127;47.780;9.606;2023-02-01T07:45:34;5.20;99.90
19930;DHT22;10127;47.780;9.606;2023-02-01T07:47:59;5.30;99.90
19930;DHT22;10127;47.780;9.606;2023-02-01T07:50:25;5.30;99.90
19930;DHT22;10127;47.780;9.606;2023-02-01T07:52:50;5.10;99.90
19930;DHT22;10127;47.780;9.606;2023-02-01T07:55:16;5.10;99.90
19930;DHT22;10127;47.780;9.606;2023-02-01T07:57:41;5.20;99.90
19930;DHT22;10127;47.780;9.606;2023-02-01T08:00:08;5.20;99.90
19930;DHT22;10127;47.780;9.606;2023-02-01T08:02:52;5.20;99.90
19930;DHT22;10127;47.780;9.606;2023-02-01T08:05:18;5.20;99.90
19930;DHT22;10127;47.780;9.606;2023-02-01T08:07:43;5.20;99.90
19930;DHT22;10127;47.780;9.606;2023-02-01T08:10:09;5.20;99.90
19930;DHT22;10127;47.780;9.606;2023-02-01T08:12:37;5.30;99.90
19930;DHT22;10127;47.780;9.606;2023-02-01T08:15:04;5.40;99.90
19930;DHT22;10127;47.780;9.606;2023-02-01T08:17:30;5.50;99.90
19930;DHT22;10127;47.780;9.606;2023-02-01T08:19:56;5.40;99.90
19930;DHT22;10127;47.780;9.606;2023-02-01T08:22:21;5.50;99.90
19930;DHT22;10127;47.780;9.606;2023-02-01T08:24:50;5.50;99.90
19930;DHT22;10127;47.780;9.606;2023-02-01T08:27:15;5.50;99.90
19930;DHT22;10127;47.780;9.606;2023-02-01T08:29:41;5.50;99.90
19930;DHT22;10127;47.780;9.606;2023-02-01T08:32:07;5.40;99.90
19930;DHT22;10127;47.780;9.606;2023-02-01T08:34:32;5.50;99.90
19930;DHT22;10127;47.780;9.606;2023-02-01T08:36:58;5.50;99.90
19930;DHT22;10127;47.780;9.606;2023-02-01T08:39:24;5.40;99.90
19930;DHT22;10127;47.780;9.606;2023-02-01T08:41:50;5.40;99.90
19930;DHT22;10127;47.780;9.606;2023-02-01T08:44:34;5.20;99.90
19930;DHT22;10127;47.780;9.606;2023-02-01T08:47:00;5.20;99.90
19930;DHT22;10127;47.780;9.606;2023-02-01T08:49:25;5.30;99.90
19930;DHT22;10127;47.780;9.606;2023-02-01T08:51:51;5.30;99.90
19930;DHT22;10127;47.780;9.606;2023-02-01T08:54:16;5.30;99.90
19930;DHT22;10127;47.780;9.606;2023-02-01T08:56:42;5.30;99.90
19930;DHT22;10127;47.780;9.606;2023-02-01T08:59:08;5.40;99.90
19930;DHT22;10127;47.780;9.606;2023-02-01T09:01:33;5.40;99.90
19930;DHT22;10127;47.780;9.606;2023-02-01T09:03:59;5.40;99.90
19930;DHT22;10127;47.780;9.606;2023-02-01T09:06:24;5.40;99.90
19930;DHT22;10127;47.780;9.606;2023-02-01T09:08:50;5.40;99.90
19930;DHT22;10127;47.780;9.606;2023-02-01T09:11:18;5.60;99.90
19930;DHT22;10127;47.780;9.606;2023-02-01T09:13:45;5.60;99.90
19930;DHT22;10127;47.780;9.606;2023-02-01T09:16:10;5.70;99.90
19930;DHT22;10127;47.780;9.606;2023-02-01T09:18:36;5.70;99.90
19930;DHT22;10127;47.780;9.606;2023-02-01T09:21:08;5.70;99.90
19930;DHT22;10127;47.780;9.606;2023-02-01T09:23:34;5.60;99.90
19930;DHT22;10127;47.780;9.606;2023-02-01T09:26:04;5.60;99.90
19930;DHT22;10127;47.780;9.606;2023-02-01T09:28:30;5.60;99.90
19930;DHT22;10127;47.780;9.606;2023-02-01T09:30:59;5.50;99.90
19930;DHT22;10127;47.780;9.606;2023-02-01T09:33:26;5.60;99.90
19930;DHT22;10127;47.780;9.606;2023-02-01T09:35:57;5.60;99.90
19930;DHT22;10127;47.780;9.606;2023-02-01T09:38:23;5.50;99.90
19930;DHT22;10127;47.780;9.606;2023-02-01T09:40:51;5.40;99.90
19930;DHT22;10127;47.780;9.606;2023-02-01T09:46:23;5.50;99.90
19930;DHT22;10127;47.780;9.606;2023-02-01T09:48:56;5.50;99.90
19930;DHT22;10127;47.780;9.606;2023-02-01T09:51:29;5.50;99.90
19930;DHT22;10127;47.780;9.606;2023-02-01T09:54:19;5.60;99.90
19930;DHT22;10127;47.780;9.606;2023-02-01T09:57:14;5.60;99.90
19930;DHT22;10127;47.780;9.606;2023-02-01T10:00:20;5.60;99.90
19930;DHT22;10127;47.780;9.606;2023-02-01T10:02:46;5.70;99.90
19930;DHT22;10127;47.780;9.606;2023-02-01T10:05:21;5.70;99.90
19930;DHT22;10127;47.780;9.606;2023-02-01T10:08:03;5.70;99.90
19930;DHT22;10127;47.780;9.606;2023-02-01T10:10:55;5.90;99.90
19930;DHT22;10127;47.780;9.606;2023-02-01T10:14:00;5.80;99.90
19930;DHT22;10127;47.780;9.606;2023-02-01T10:16:36;5.80;99.90
19930;DHT22;10127;47.780;9.606;2023-02-01T10:19:29;5.80;99.90
19930;DHT22;10127;47.780;9.606;2023-02-01T10:22:39;5.90;99.90
19930;DHT22;10127;47.780;9.606;2023-02-01T10:27:40;6.00;99.90
19930;DHT22;10127;47.780;9.606;2023-02-01T10:30:20;6.10;99.90
19930;DHT22;10127;47.780;9.606;2023-02-01T10:32:59;6.20;99.90
19930;DHT22;10127;47.780;9.606;2023-02-01T10:35:34;6.20;99.90
19930;DHT22;10127;47.780;9.606;2023-02-01T10:38:02;6.30;99.90
19930;DHT22;10127;47.780;9.606;2023-02-01T10:40:29;6.10;99.90
19930;DHT22;10127;47.780;9.606;2023-02-01T10:42:59;6.20;99.90
19930;DHT22;10127;47.780;9.606;2023-02-01T10:45:28;6.20;99.90
19930;DHT22;10127;47.780;9.606;2023-02-01T10:47:56;6.20;99.90
19930;DHT22;10127;47.780;9.606;2023-02-01T10:50:41;6.20;99.90
19930;DHT22;10127;47.780;9.606;2023-02-01T10:55:48;6.30;99.90
19930;DHT22;10127;47.780;9.606;2023-02-01T11:01:01;6.30;99.90
19930;DHT22;10127;47.780;9.606;2023-02-01T11:03:40;6.30;99.90
19930;DHT22;10127;47.780;9.606;2023-02-01T11:08:58;6.40;99.90
19930;DHT22;10127;47.780;9.606;2023-02-01T11:11:24;6.40;99.90
19930;DHT22;10127;47.780;9.606;2023-02-01T11:13:59;6.30;99.90
19930;DHT22;10127;47.780;9.606;2023-02-01T11:16:35;6.30;99.90
19930;DHT22;10127;47.780;9.606;2023-02-01T11:19:01;6.30;99.90
19930;DHT22;10127;47.780;9.606;2023-02-01T11:21:27;6.30;99.90
19930;DHT22;10127;47.780;9.606;2023-02-01T11:23:53;6.30;99.90
19930;DHT22;10127;47.780;9.606;2023-02-01T11:26:27;6.40;99.90
19930;DHT22;10127;47.780;9.606;2023-02-01T11:29:01;6.50;99.90
19930;DHT22;10127;47.780;9.606;2023-02-01T11:31:28;6.60;99.90
19930;DHT22;10127;47.780;9.606;2023-02-01T11:34:20;6.60;99.90
19930;DHT22;10127;47.780;9.606;2023-02-01T11:36:46;6.50;99.90
19930;DHT22;10127;47.780;9.606;2023-02-01T11:41:44;6.60;99.90
19930;DHT22;10127;47.780;9.606;2023-02-01T11:47:26;6.70;99.90
19930;DHT22;10127;47.780;9.606;2023-02-01T11:50:01;6.60;99.90
19930;DHT22;10127;47.780;9.606;2023-02-01T11:57:48;6.80;99.90
19930;DHT22;10127;47.780;9.606;2023-02-01T12:03:26;6.70;99.90
19930;DHT22;10127;47.780;9.606;2023-02-01T12:06:08;6.60;99.90
19930;DHT22;10127;47.780;9.606;2023-02-01T12:17:26;7.00;99.90
19930;DHT22;10127;47.780;9.606;2023-02-01T12:39:30;7.20;99.90
19930;DHT22;10127;47.780;9.606;2023-02-01T12:44:51;7.30;99.90
19930;DHT22;10127;47.780;9.606;2023-02-01T12:53:13;7.50;99.90
19930;DHT22;10127;47.780;9.606;2023-02-01T12:55:55;7.50;99.90
19930;DHT22;10127;47.780;9.606;2023-02-01T12:58:45;7.30;99.90
19930;DHT22;10127;47.780;9.606;2023-02-01T13:04:03;7.40;99.90
19930;DHT22;10127;47.780;9.606;2023-02-01T13:06:43;7.50;99.90
19930;DHT22;10127;47.780;9.606;2023-02-01T13:11:48;7.50;99.90
19930;DHT22;10127;47.780;9.606;2023-02-01T13:14:35;7.40;99.90
19930;DHT22;10127;47.780;9.606;2023-02-01T13:17:23;7.30;99.90
19930;DHT22;10127;47.780;9.606;2023-02-01T13:22:50;7.20;99.90
19930;DHT22;10127;47.780;9.606;2023-02-01T13:25:35;7.20;99.90
19930;DHT22;10127;47.780;9.606;2023-02-01T13:28:06;7.10;99.90
19930;DHT22;10127;47.780;9.606;2023-02-01T13:39:32;7.10;99.90
19930;DHT22;10127;47.780;9.606;2023-02-01T13:42:21;7.10;99.90
19930;DHT22;10127;47.780;9.606;2023-02-01T13:44:49;7.10;99.90
19930;DHT22;10127;47.780;9.606;2023-02-01T13:47:34;7.10;99.90
19930;DHT22;10127;47.780;9.606;2023-02-01T13:50:26;7.00;99.90
19930;DHT22;10127;47.780;9.606;2023-02-01T13:52:56;7.00;99.90
19930;DHT22;10127;47.780;9.606;2023-02-01T13:55:29;7.00;99.90
19930;DHT22;10127;47.780;9.606;2023-02-01T14:00:35;7.00;99.90
19930;DHT22;10127;47.780;9.606;2023-02-01T14:08:11;6.90;99.90
19930;DHT22;10127;47.780;9.606;2023-02-01T14:26:24;7.00;99.90
19930;DHT22;10127;47.780;9.606;2023-02-01T14:32:06;6.90;99.90
19930;DHT22;10127;47.780;9.606;2023-02-01T14:34:50;6.90;99.90
19930;DHT22;10127;47.780;9.606;2023-02-01T14:44:54;7.00;99.90
19930;DHT22;10127;47.780;9.606;2023-02-01T14:49:59;7.10;99.90
19930;DHT22;10127;47.780;9.606;2023-02-01T14:52:34;7.20;99.90
19930;DHT22;10127;47.780;9.606;2023-02-01T14:55:09;7.20;99.90
19930;DHT22;10127;47.780;9.606;2023-02-01T14:57:39;7.20;99.90
19930;DHT22;10127;47.780;9.606;2023-02-01T15:02:49;7.20;99.90
19930;DHT22;10127;47.780;9.606;2023-02-01T15:05:32;7.10;99.90
19930;DHT22;10127;47.780;9.606;2023-02-01T15:08:05;7.10;99.90
19930;DHT22;10127;47.780;9.606;2023-02-01T15:10:40;7.10;99.90
19930;DHT22;10127;47.780;9.606;2023-02-01T15:13:20;7.00;99.90
19930;DHT22;10127;47.780;9.606;2023-02-01T15:16:03;7.10;99.90
19930;DHT22;10127;47.780;9.606;2023-02-01T15:18:29;7.20;99.90
19930;DHT22;10127;47.780;9.606;2023-02-01T15:21:00;7.30;99.90
19930;DHT22;10127;47.780;9.606;2023-02-01T15:23:26;7.20;99.90
19930;DHT22;10127;47.780;9.606;2023-02-01T15:25:53;7.20;99.90
19930;DHT22;10127;47.780;9.606;2023-02-01T15:28:19;7.30;99.90
19930;DHT22;10127;47.780;9.606;2023-02-01T15:31:00;7.10;99.90
19930;DHT22;10127;47.780;9.606;2023-02-01T15:33:27;7.00;99.90
19930;DHT22;10127;47.780;9.606;2023-02-01T15:35:55;6.90;99.90
19930;DHT22;10127;47.780;9.606;2023-02-01T15:38:33;7.10;99.90
19930;DHT22;10127;47.780;9.606;2023-02-01T15:41:09;7.00;99.90
19930;DHT22;10127;47.780;9.606;2023-02-01T15:46:31;7.00;99.90
19930;DHT22;10127;47.780;9.606;2023-02-01T15:48:57;7.00;99.90
19930;DHT22;10127;47.780;9.606;2023-02-01T15:51:29;6.80;99.90
19930;DHT22;10127;47.780;9.606;2023-02-01T15:56:35;6.70;99.90
19930;DHT22;10127;47.780;9.606;2023-02-01T15:59:02;6.80;99.90
19930;DHT22;10127;47.780;9.606;2023-02-01T16:01:29;6.70;99.90
19930;DHT22;10127;47.780;9.606;2023-02-01T16:04:22;6.70;99.90
19930;DHT22;10127;47.780;9.606;2023-02-01T16:06:52;6.80;99.90
19930;DHT22;10127;47.780;9.606;2023-02-01T16:09:23;6.70;99.90
19930;DHT22;10127;47.780;9.606;2023-02-01T16:12:01;6.70;99.90
19930;DHT22;10127;47.780;9.606;2023-02-01T16:14:27;6.60;99.90
19930;DHT22;10127;47.780;9.606;2023-02-01T16:16:55;6.60;99.90
19930;DHT22;10127;47.780;9.606;2023-02-01T16:19:21;6.50;99.90
19930;DHT22;10127;47.780;9.606;2023-02-01T16:21:49;6.50;99.90
19930;DHT22;10127;47.780;9.606;2023-02-01T16:24:15;6.50;99.90
19930;DHT22;10127;47.780;9.606;2023-02-01T16:26:40;6.50;99.90
19930;DHT22;10127;47.780;9.606;2023-02-01T16:29:06;6.50;99.90
19930;DHT22;10127;47.780;9.606;2023-02-01T16:31:37;6.50;99.90
19930;DHT22;10127;47.780;9.606;2023-02-01T16:34:04;6.50;99.90
19930;DHT22;10127;47.780;9.606;2023-02-01T16:36:31;6.50;99.90
19930;DHT22;10127;47.780;9.606;2023-02-01T16:38:57;6.40;99.90
19930;DHT22;10127;47.780;9.606;2023-02-01T16:41:24;6.50;99.90
19930;DHT22;10127;47.780;9.606;2023-02-01T16:43:52;6.50;99.90
19930;DHT22;10127;47.780;9.606;2023-02-01T16:46:23;6.50;99.90
19930;DHT22;10127;47.780;9.606;2023-02-01T16:48:56;6.50;99.90
19930;DHT22;10127;47.780;9.606;2023-02-01T16:51:24;6.50;99.90
19930;DHT22;10127;47.780;9.606;2023-02-01T16:53:50;6.50;99.90
19930;DHT22;10127;47.780;9.606;2023-02-01T16:56:22;6.50;99.90
19930;DHT22;10127;47.780;9.606;2023-02-01T16:58:48;6.50;99.90
19930;DHT22;10127;47.780;9.606;2023-02-01T17:01:16;6.40;99.90
19930;DHT22;10127;47.780;9.606;2023-02-01T17:03:42;6.40;99.90
19930;DHT22;10127;47.780;9.606;2023-02-01T17:06:10;6.40;99.90
19930;DHT22;10127;47.780;9.606;2023-02-01T17:08:40;6.30;99.90
19930;DHT22;10127;47.780;9.606;2023-02-01T17:11:06;6.30;99.90
19930;DHT22;10127;47.780;9.606;2023-02-01T17:13:33;6.30;99.90
19930;DHT22;10127;47.780;9.606;2023-02-01T17:16:02;6.30;99.90
19930;DHT22;10127;47.780;9.606;2023-02-01T17:18:31;6.30;99.90
19930;DHT22;10127;47.780;9.606;2023-02-01T17:20:58;6.30;99.90
19930;DHT22;10127;47.780;9.606;2023-02-01T17:23:24;6.30;99.90
19930;DHT22;10127;47.780;9.606;2023-02-01T17:25:51;6.30;99.90
19930;DHT22;10127;47.780;9.606;2023-02-01T17:28:17;6.30;99.90
19930;DHT22;10127;47.780;9.606;2023-02-01T17:30:42;6.40;99.90
19930;DHT22;10127;47.780;9.606;2023-02-01T17:35:54;6.40;99.90
19930;DHT22;10127;47.780;9.606;2023-02-01T17:38:19;6.30;99.90
19930;DHT22;10127;47.780;9.606;2023-02-01T17:40:45;6.30;99.90
19930;DHT22;10127;47.780;9.606;2023-02-01T17:43:13;6.40;99.90
19930;DHT22;10127;47.780;9.606;2023-02-01T17:45:52;6.50;99.90
19930;DHT22;10127;47.780;9.606;2023-02-01T17:48:20;6.40;99.90
19930;DHT22;10127;47.780;9.606;2023-02-01T17:50:48;6.40;99.90
19930;DHT22;10127;47.780;9.606;2023-02-01T17:53:16;6.40;99.90
19930;DHT22;10127;47.780;9.606;2023-02-01T17:55:45;6.30;99.90
19930;DHT22;10127;47.780;9.606;2023-02-01T17:58:12;6.30;99.90
19930;DHT22;10127;47.780;9.606;2023-02-01T18:00:40;6.30;99.90
19930;DHT22;10127;47.780;9.606;2023-02-01T18:03:05;6.30;99.90
19930;DHT22;10127;47.780;9.606;2023-02-01T18:05:38;6.30;99.90
19930;DHT22;10127;47.780;9.606;2023-02-01T18:08:04;6.30;99.90
19930;DHT22;10127;47.780;9.606;2023-02-01T18:10:30;6.30;99.90
19930;DHT22;10127;47.780;9.606;2023-02-01T18:12:55;6.30;99.90
19930;DHT22;10127;47.780;9.606;2023-02-01T18:15:24;6.40;99.90
19930;DHT22;10127;47.780;9.606;2023-02-01T18:17:49;6.30;99.90
19930;DHT22;10127;47.780;9.606;2023-02-01T18:20:20;6.40;99.90
19930;DHT22;10127;47.780;9.606;2023-02-01T18:22:46;6.40;99.90
19930;DHT22;10127;47.780;9.606;2023-02-01T18:25:28;6.40;99.90
19930;DHT22;10127;47.780;9.606;2023-02-01T18:27:55;6.40;99.90
19930;DHT22;10127;47.780;9.606;2023-02-01T18:30:24;6.40;99.90
19930;DHT22;10127;47.780;9.606;2023-02-01T18:32:52;6.40;99.90
19930;DHT22;10127;47.780;9.606;2023-02-01T18:35:24;6.40;99.90
19930;DHT22;10127;47.780;9.606;2023-02-01T18:37:51;6.40;99.90
19930;DHT22;10127;47.780;9.606;2023-02-01T18:40:20;6.40;99.90
19930;DHT22;10127;47.780;9.606;2023-02-01T18:42:46;6.40;99.90
19930;DHT22;10127;47.780;9.606;2023-02-01T18:47:46;6.30;99.90
19930;DHT22;10127;47.780;9.606;2023-02-01T18:50:11;6.40;99.90
19930;DHT22;10127;47.780;9.606;2023-02-01T18:52:37;6.40;99.90
19930;DHT22;10127;47.780;9.606;2023-02-01T18:55:04;6.40;99.90
19930;DHT22;10127;47.780;9.606;2023-02-01T18:57:30;6.30;99.90
19930;DHT22;10127;47.780;9.606;2023-02-01T18:59:57;6.30;99.90
19930;DHT22;10127;47.780;9.606;2023-02-01T19:02:23;6.40;99.90
19930;DHT22;10127;47.780;9.606;2023-02-01T19:04:48;6.40;99.90
19930;DHT22;10127;47.780;9.606;2023-02-01T19:07:14;6.40;99.90